N666X KDRO-KAPA
Flight info
| Callsign | N666X |
|---|---|
| Flight time | N/A |
| Altitude | 35000 |
| Route | STIFS ZOMBZ6 |
| Aircraft | CL60/M-SBDE1E2E3FGHIJ1J4J5J7M3RWXYZ/LB1V1D1 |
Departure
| Time | 2026-05-06 15:39 |
|---|---|
| Airport | Durango La Plata County Airport (KDRO) |
Arrival
| Time | N/A |
|---|---|
| Airport | Centennial Airport (KAPA) |
| Time | Latitude | Longitude | Altitude | Speed | Heading |
|---|---|---|---|---|---|
| 2026-05-06 15:10 | 37.15612 | -107.75166 | 6662 ft | 0 kts | 307° |
| 2026-05-06 15:34 | 37.15623 | -107.75178 | 6661 ft | 5 kts | 345° |
| 2026-05-06 15:34 | 37.15625 | -107.75142 | 6662 ft | 6 kts | 112° |
| 2026-05-06 15:34 | 37.15637 | -107.75092 | 6665 ft | 6 kts | 49° |
| 2026-05-06 15:35 | 37.15671 | -107.75056 | 6667 ft | 6 kts | 37° |
| 2026-05-06 15:35 | 37.15716 | -107.75013 | 6670 ft | 8 kts | 38° |
| 2026-05-06 15:35 | 37.15772 | -107.74960 | 6672 ft | 11 kts | 37° |
| 2026-05-06 15:35 | 37.15843 | -107.74891 | 6675 ft | 13 kts | 39° |
| 2026-05-06 15:36 | 37.15921 | -107.74815 | 6679 ft | 14 kts | 37° |
| 2026-05-06 15:36 | 37.16009 | -107.74730 | 6683 ft | 17 kts | 37° |
| 2026-05-06 15:36 | 37.16096 | -107.74650 | 6686 ft | 14 kts | 37° |
| 2026-05-06 15:36 | 37.16168 | -107.74580 | 6689 ft | 11 kts | 41° |
| 2026-05-06 15:37 | 37.16190 | -107.74510 | 6691 ft | 7 kts | 100° |
| 2026-05-06 15:37 | 37.16162 | -107.74451 | 6691 ft | 8 kts | 127° |
| 2026-05-06 15:37 | 37.16136 | -107.74435 | 6691 ft | 5 kts | 200° |
| 2026-05-06 15:37 | 37.16107 | -107.74467 | 6690 ft | 0 kts | 217° |
| 2026-05-06 15:38 | 37.16101 | -107.74473 | 6689 ft | 5 kts | 218° |
| 2026-05-06 15:38 | 37.15846 | -107.74716 | 6680 ft | 94 kts | 217° |
| 2026-05-06 15:39 | 37.15090 | -107.75422 | 6718 ft | 167 kts | 216° |
| 2026-05-06 15:39 | 37.14083 | -107.76297 | 7323 ft | 182 kts | 217° |
| 2026-05-06 15:39 | 37.13003 | -107.77253 | 7918 ft | 202 kts | 217° |
| 2026-05-06 15:39 | 37.11726 | -107.78136 | 8804 ft | 225 kts | 197° |
| 2026-05-06 15:40 | 37.10085 | -107.78085 | 9671 ft | 257 kts | 165° |
| 2026-05-06 15:40 | 37.08509 | -107.76829 | 10426 ft | 291 kts | 133° |
| 2026-05-06 15:40 | 37.07534 | -107.74561 | 11399 ft | 311 kts | 103° |
| 2026-05-06 15:40 | 37.07499 | -107.71851 | 12479 ft | 319 kts | 73° |
| 2026-05-06 15:41 | 37.08440 | -107.69413 | 13643 ft | 317 kts | 45° |
| 2026-05-06 15:41 | 37.10117 | -107.67782 | 14808 ft | 309 kts | 18° |
| 2026-05-06 15:41 | 37.12163 | -107.67223 | 16003 ft | 303 kts | 359° |
| 2026-05-06 15:41 | 37.14276 | -107.67094 | 17100 ft | 307 kts | 358° |
| 2026-05-06 15:42 | 37.16399 | -107.67007 | 18188 ft | 311 kts | 357° |
| 2026-05-06 15:42 | 37.18619 | -107.66914 | 18956 ft | 326 kts | 359° |
| 2026-05-06 15:42 | 37.20915 | -107.66313 | 19686 ft | 347 kts | 17° |
| 2026-05-06 15:42 | 37.22980 | -107.64693 | 20479 ft | 365 kts | 39° |
| 2026-05-06 15:43 | 37.24746 | -107.62279 | 21267 ft | 374 kts | 45° |
| 2026-05-06 15:43 | 37.26474 | -107.59805 | 22061 ft | 379 kts | 44° |
| 2026-05-06 15:43 | 37.28240 | -107.57287 | 22798 ft | 386 kts | 45° |
| 2026-05-06 15:43 | 37.30009 | -107.54760 | 23561 ft | 391 kts | 44° |
| 2026-05-06 15:44 | 37.31802 | -107.52199 | 24244 ft | 396 kts | 45° |
| 2026-05-06 15:44 | 37.33638 | -107.49572 | 24984 ft | 399 kts | 44° |
| 2026-05-06 15:44 | 37.35481 | -107.46933 | 25658 ft | 404 kts | 44° |
| 2026-05-06 15:44 | 37.37347 | -107.44261 | 26332 ft | 409 kts | 44° |
| 2026-05-06 15:45 | 37.39229 | -107.41562 | 27010 ft | 413 kts | 44° |
| 2026-05-06 15:45 | 37.41106 | -107.38868 | 27601 ft | 418 kts | 44° |
| 2026-05-06 15:45 | 37.43033 | -107.36101 | 28210 ft | 421 kts | 44° |
| 2026-05-06 15:45 | 37.45000 | -107.33274 | 28809 ft | 425 kts | 44° |
| 2026-05-06 15:46 | 37.46941 | -107.30482 | 29338 ft | 429 kts | 45° |
| 2026-05-06 15:46 | 37.48941 | -107.27603 | 29847 ft | 433 kts | 45° |
| 2026-05-06 15:46 | 37.50942 | -107.24719 | 30287 ft | 438 kts | 44° |
| 2026-05-06 15:46 | 37.52931 | -107.21852 | 30720 ft | 442 kts | 45° |
| 2026-05-06 15:47 | 37.54958 | -107.18925 | 31168 ft | 445 kts | 44° |
| 2026-05-06 15:47 | 37.56999 | -107.15975 | 31547 ft | 449 kts | 45° |
| 2026-05-06 15:47 | 37.59054 | -107.13003 | 31906 ft | 453 kts | 45° |
| 2026-05-06 15:47 | 37.61143 | -107.09978 | 32350 ft | 454 kts | 45° |
| 2026-05-06 15:48 | 37.63205 | -107.06988 | 32852 ft | 453 kts | 45° |
| 2026-05-06 15:48 | 37.65259 | -107.04007 | 33402 ft | 449 kts | 45° |
| 2026-05-06 15:48 | 37.67285 | -107.01063 | 33893 ft | 447 kts | 45° |
| 2026-05-06 15:48 | 37.69316 | -106.98111 | 34343 ft | 446 kts | 45° |
| 2026-05-06 15:49 | 37.71365 | -106.95131 | 34706 ft | 448 kts | 45° |
| 2026-05-06 15:49 | 37.73385 | -106.92191 | 35011 ft | 450 kts | 44° |
| 2026-05-06 15:49 | 37.77573 | -106.86094 | 35084 ft | 468 kts | 45° |
| 2026-05-06 15:50 | 37.81911 | -106.79763 | 35063 ft | 483 kts | 45° |
| 2026-05-06 15:50 | 37.86309 | -106.73327 | 35040 ft | 488 kts | 45° |
| 2026-05-06 15:51 | 37.90734 | -106.66836 | 35031 ft | 488 kts | 45° |
| 2026-05-06 15:51 | 37.95182 | -106.60300 | 35000 ft | 489 kts | 45° |
| 2026-05-06 15:52 | 37.99612 | -106.53777 | 35006 ft | 490 kts | 45° |
| 2026-05-06 15:52 | 38.04071 | -106.47198 | 34997 ft | 490 kts | 45° |
| 2026-05-06 15:53 | 38.08494 | -106.40659 | 35009 ft | 490 kts | 45° |
| 2026-05-06 15:53 | 38.12936 | -106.34079 | 34998 ft | 490 kts | 46° |
| 2026-05-06 15:54 | 38.17379 | -106.27485 | 34996 ft | 491 kts | 45° |
| 2026-05-06 15:54 | 38.21802 | -106.20908 | 34978 ft | 492 kts | 46° |
| 2026-05-06 15:55 | 38.26246 | -106.14284 | 35008 ft | 493 kts | 46° |
| 2026-05-06 15:55 | 38.30718 | -106.07607 | 35001 ft | 494 kts | 46° |
| 2026-05-06 15:56 | 38.35194 | -106.00987 | 34910 ft | 494 kts | 43° |
| 2026-05-06 15:56 | 38.37685 | -105.98003 | 34408 ft | 493 kts | 35° |
| 2026-05-06 15:56 | 38.40438 | -105.95404 | 33827 ft | 488 kts | 31° |
| 2026-05-06 15:57 | 38.43199 | -105.92930 | 33199 ft | 487 kts | 31° |
| 2026-05-06 15:57 | 38.45983 | -105.90424 | 32535 ft | 485 kts | 31° |
| 2026-05-06 15:57 | 38.48721 | -105.87956 | 31888 ft | 481 kts | 30° |
| 2026-05-06 15:57 | 38.51426 | -105.85513 | 31283 ft | 477 kts | 31° |
| 2026-05-06 15:58 | 38.54147 | -105.83055 | 30632 ft | 476 kts | 31° |
| 2026-05-06 15:58 | 38.56832 | -105.80626 | 29942 ft | 474 kts | 31° |
| 2026-05-06 15:58 | 38.59506 | -105.78204 | 29357 ft | 467 kts | 31° |
| 2026-05-06 15:58 | 38.62133 | -105.75821 | 28718 ft | 462 kts | 30° |
| 2026-05-06 15:59 | 38.64746 | -105.73447 | 28093 ft | 457 kts | 31° |
| 2026-05-06 15:59 | 38.67330 | -105.71100 | 27490 ft | 452 kts | 30° |
| 2026-05-06 15:59 | 38.69891 | -105.68769 | 26899 ft | 447 kts | 30° |
| 2026-05-06 15:59 | 38.72461 | -105.66429 | 26295 ft | 442 kts | 30° |
| 2026-05-06 16:00 | 38.75007 | -105.64110 | 25694 ft | 437 kts | 31° |
| 2026-05-06 16:00 | 38.77485 | -105.61848 | 25124 ft | 432 kts | 30° |
| 2026-05-06 16:00 | 38.79926 | -105.59620 | 24565 ft | 426 kts | 30° |
| 2026-05-06 16:00 | 38.82381 | -105.57375 | 23985 ft | 421 kts | 31° |
| 2026-05-06 16:01 | 38.84760 | -105.55199 | 23420 ft | 416 kts | 31° |
| 2026-05-06 16:01 | 38.87085 | -105.53070 | 22877 ft | 411 kts | 31° |
| 2026-05-06 16:01 | 38.89412 | -105.50939 | 22331 ft | 409 kts | 30° |
| 2026-05-06 16:01 | 38.91715 | -105.48829 | 21787 ft | 407 kts | 31° |
| 2026-05-06 16:02 | 38.94006 | -105.46726 | 21249 ft | 403 kts | 31° |
| 2026-05-06 16:02 | 38.96306 | -105.44613 | 20711 ft | 399 kts | 31° |
| 2026-05-06 16:02 | 38.98557 | -105.42545 | 20187 ft | 395 kts | 31° |
| 2026-05-06 16:02 | 39.00794 | -105.40485 | 19661 ft | 391 kts | 31° |
| 2026-05-06 16:03 | 39.02990 | -105.38463 | 19146 ft | 386 kts | 31° |
| 2026-05-06 16:03 | 39.05120 | -105.36337 | 18658 ft | 385 kts | 38° |
| 2026-05-06 16:03 | 39.07055 | -105.33974 | 18156 ft | 380 kts | 40° |
| 2026-05-06 16:03 | 39.09070 | -105.31484 | 17391 ft | 373 kts | 41° |
| 2026-05-06 16:04 | 39.10954 | -105.29155 | 17032 ft | 353 kts | 41° |
| 2026-05-06 16:04 | 39.12697 | -105.27000 | 16569 ft | 339 kts | 41° |
| 2026-05-06 16:04 | 39.14411 | -105.24882 | 16197 ft | 329 kts | 41° |
| 2026-05-06 16:04 | 39.16237 | -105.22628 | 15668 ft | 327 kts | 43° |
| 2026-05-06 16:05 | 39.17895 | -105.20180 | 15192 ft | 324 kts | 57° |
| 2026-05-06 16:05 | 39.18762 | -105.17494 | 14741 ft | 322 kts | 77° |
| 2026-05-06 16:05 | 39.18979 | -105.14443 | 14296 ft | 318 kts | 89° |
| 2026-05-06 16:05 | 39.19029 | -105.11201 | 13850 ft | 307 kts | 90° |
| 2026-05-06 16:06 | 39.19075 | -105.08280 | 13504 ft | 299 kts | 88° |
| 2026-05-06 16:06 | 39.19487 | -105.05681 | 13112 ft | 298 kts | 68° |
| 2026-05-06 16:06 | 39.20597 | -105.03440 | 12743 ft | 294 kts | 50° |
| 2026-05-06 16:06 | 39.21952 | -105.01445 | 12355 ft | 288 kts | 49° |
| 2026-05-06 16:07 | 39.23243 | -104.99544 | 12048 ft | 279 kts | 49° |
| 2026-05-06 16:07 | 39.24517 | -104.97658 | 11706 ft | 277 kts | 49° |
| 2026-05-06 16:07 | 39.25803 | -104.95815 | 11338 ft | 274 kts | 44° |
| 2026-05-06 16:07 | 39.27477 | -104.94494 | 11054 ft | 267 kts | 19° |
| 2026-05-06 16:08 | 39.29288 | -104.94134 | 11001 ft | 257 kts | 0° |
| 2026-05-06 16:08 | 39.31082 | -104.94208 | 10989 ft | 260 kts | 358° |
| 2026-05-06 16:08 | 39.32927 | -104.94293 | 10992 ft | 262 kts | 359° |
| 2026-05-06 16:08 | 39.34759 | -104.94376 | 11004 ft | 262 kts | 359° |
| 2026-05-06 16:09 | 39.36593 | -104.94458 | 11007 ft | 263 kts | 359° |
| 2026-05-06 16:09 | 39.38446 | -104.94541 | 10898 ft | 261 kts | 359° |
| 2026-05-06 16:09 | 39.40306 | -104.94624 | 10769 ft | 252 kts | 359° |
| 2026-05-06 16:09 | 39.42052 | -104.94702 | 10636 ft | 249 kts | 359° |
| 2026-05-06 16:10 | 39.43930 | -104.94786 | 10501 ft | 249 kts | 359° |
| 2026-05-06 16:10 | 39.45805 | -104.94871 | 10359 ft | 248 kts | 359° |
| 2026-05-06 16:10 | 39.47766 | -104.94956 | 10211 ft | 248 kts | 360° |
| 2026-05-06 16:10 | 39.49741 | -104.95047 | 10060 ft | 247 kts | 359° |
| 2026-05-06 16:11 | 39.51656 | -104.95134 | 9905 ft | 246 kts | 359° |
| 2026-05-06 16:11 | 39.53461 | -104.95216 | 9684 ft | 249 kts | 360° |
| 2026-05-06 16:11 | 39.55195 | -104.95293 | 9342 ft | 249 kts | 360° |
| 2026-05-06 16:11 | 39.56924 | -104.95371 | 8992 ft | 248 kts | 360° |
| 2026-05-06 16:12 | 39.58636 | -104.95448 | 8775 ft | 240 kts | 360° |
| 2026-05-06 16:12 | 39.60289 | -104.95525 | 8507 ft | 235 kts | 358° |
| 2026-05-06 16:12 | 39.61964 | -104.95599 | 8246 ft | 222 kts | 359° |
| 2026-05-06 16:12 | 39.63618 | -104.95667 | 8040 ft | 203 kts | 359° |
| 2026-05-06 16:13 | 39.65006 | -104.95421 | 7779 ft | 188 kts | 18° |
| 2026-05-06 16:13 | 39.66139 | -104.94643 | 7721 ft | 154 kts | 38° |
| 2026-05-06 16:13 | 39.66950 | -104.93597 | 7687 ft | 154 kts | 51° |
| 2026-05-06 16:13 | 39.67489 | -104.92364 | 7568 ft | 150 kts | 66° |
| 2026-05-06 16:14 | 39.67739 | -104.91042 | 7476 ft | 148 kts | 82° |
| 2026-05-06 16:14 | 39.67709 | -104.89654 | 7386 ft | 149 kts | 97° |
| 2026-05-06 16:14 | 39.67400 | -104.88384 | 7300 ft | 148 kts | 111° |
| 2026-05-06 16:14 | 39.66855 | -104.87228 | 7201 ft | 151 kts | 126° |
| 2026-05-06 16:15 | 39.66069 | -104.86287 | 7105 ft | 153 kts | 142° |
| 2026-05-06 16:15 | 39.65110 | -104.85658 | 7004 ft | 153 kts | 159° |
| 2026-05-06 16:15 | 39.64032 | -104.85387 | 6908 ft | 154 kts | 175° |
| 2026-05-06 16:15 | 39.62931 | -104.85339 | 6730 ft | 154 kts | 178° |
| 2026-05-06 16:16 | 39.61875 | -104.85299 | 6560 ft | 152 kts | 177° |
| 2026-05-06 16:16 | 39.60809 | -104.85252 | 6326 ft | 153 kts | 177° |
| 2026-05-06 16:16 | 39.59745 | -104.85204 | 6102 ft | 151 kts | 177° |
| 2026-05-06 16:16 | 39.58695 | -104.85156 | 5911 ft | 150 kts | 178° |
| 2026-05-06 16:17 | 39.57728 | -104.85116 | 5832 ft | 126 kts | 176° |